Voyager — WDE5209 — position and weather

sailwx.info

Track history (hours):
 
Tides and Currents Weather Stations Pressure Air Temp Water Temp Dewpoint Dewpoint Depression Visibility Wind Speed Wind Dir Waves Ship Positions

Voyager

Owner: Compass Rose Yacht Charters, LLC, Napa, CA. More information available from US FCC via Universal Licensing System and Coast Guard Vessel Documentation Center.

Last reported at 2017-Dec-10 01:26 UTC. Time now 2017-Dec-15 15:59 UTC.
Position N 37°52' W 122°19'.

Length 21 m; draft 20.3 m.

Type: Pleasure craft. MMSI: 367363460.

Date/timePositionNaut miles runAvg speedWind from/ knotsBaromVisibWave heightAir tempDewpointWater temp
2017-Dec-10 01:26N 37°52' W 122°19'0 0.1
2017-Dec-10 01:00N 37°52' W 122°19'1 2.6
2017-Dec-10 00:30N 37°51' W 122°20'4 8.0
2017-Dec-10 00:01N 37°48' W 122°23'4 8.7
2017-Dec-09 23:31N 37°49' W 122°28'2 3.7
2017-Dec-09 23:00N 37°50' W 122°26'4 7.8
2017-Dec-09 22:30N 37°51' W 122°21'2 3.7
2017-Dec-09 22:00N 37°52' W 122°19'0 0.1
2017-Dec-09 21:30N 37°52' W 122°19'  
Track history (hours):
 
Tides and Currents Weather Stations Pressure Air Temp Water Temp Dewpoint Dewpoint Depression Visibility Wind Speed Wind Dir Waves Ship Positions

Voyager

Owner: Compass Rose Yacht Charters, LLC, Napa, CA. More information available from US FCC via Universal Licensing System and Coast Guard Vessel Documentation Center.

Last reported at 2017-Dec-10 01:26 UTC. Time now 2017-Dec-15 15:59 UTC.
Position N 37°52' W 122°19'.

Length 21 m; draft 20.3 m.

Type: Pleasure craft. MMSI: 367363460.

Date/timePositionNaut miles runAvg speedWind from/ knotsBaromVisibWave heightAir tempDewpointWater temp
2017-Dec-10 01:26N 37°52' W 122°19'0 0.1
2017-Dec-10 01:00N 37°52' W 122°19'1 2.6
2017-Dec-10 00:30N 37°51' W 122°20'4 8.0
2017-Dec-10 00:01N 37°48' W 122°23'4 8.7
2017-Dec-09 23:31N 37°49' W 122°28'2 3.7
2017-Dec-09 23:00N 37°50' W 122°26'4 7.8
2017-Dec-09 22:30N 37°51' W 122°21'2 3.7
2017-Dec-09 22:00N 37°52' W 122°19'0 0.1
2017-Dec-09 21:30N 37°52' W 122°19'  

Dump ship's entire track history